createdAt,value
2019-04-01T00:02:23.473Z,6.43
2019-04-01T00:04:51.865Z,8.17
2019-04-01T00:07:20.210Z,12.00
2019-04-01T00:09:48.478Z,12.53
2019-04-01T00:12:16.783Z,7.70
2019-04-01T00:14:45.131Z,10.10
2019-04-01T00:17:13.423Z,10.83
2019-04-01T00:19:41.692Z,5.93
2019-04-01T00:22:09.984Z,6.77
2019-04-01T00:24:38.249Z,5.37
2019-04-01T00:27:06.547Z,6.77
2019-04-01T00:29:34.805Z,11.43
2019-04-01T00:32:03.171Z,4.13
2019-04-01T00:34:31.442Z,8.53
2019-04-01T00:36:59.735Z,6.63
2019-04-01T00:39:28.013Z,10.67
2019-04-01T00:41:56.387Z,7.03
2019-04-01T00:44:24.736Z,5.90
2019-04-01T00:46:52.991Z,10.27
2019-04-01T00:49:21.291Z,8.60
2019-04-01T00:51:49.560Z,6.80
2019-04-01T00:54:17.853Z,9.20
2019-04-01T00:56:46.127Z,10.90
2019-04-01T00:59:14.418Z,8.37
2019-04-01T01:01:42.683Z,7.73
2019-04-01T01:04:10.981Z,7.00
2019-04-01T01:06:39.248Z,7.47
2019-04-01T01:09:07.602Z,11.70
2019-04-01T01:11:35.868Z,5.53
2019-04-01T01:14:04.167Z,10.30
2019-04-01T01:16:32.455Z,10.30
2019-04-01T01:19:00.823Z,10.70
2019-04-01T01:21:30.565Z,9.37
2019-04-01T01:23:58.855Z,12.10
2019-04-01T01:26:27.127Z,9.00
2019-04-01T01:28:55.436Z,7.20
2019-04-01T01:31:23.739Z,11.00
2019-04-01T01:33:52.066Z,7.60
2019-04-01T01:36:20.362Z,7.03
2019-04-01T01:38:48.630Z,5.23
2019-04-01T01:41:16.998Z,10.50
2019-04-01T01:43:45.277Z,4.37
2019-04-01T01:46:13.584Z,18.83
2019-04-01T01:48:41.847Z,9.73
2019-04-01T01:51:10.142Z,4.13
2019-04-01T01:53:41.497Z,7.20
2019-04-01T01:56:08.400Z,5.63
2019-04-01T01:58:36.784Z,14.47
2019-04-01T02:01:05.171Z,12.03
2019-04-01T02:03:33.511Z,6.20
2019-04-01T02:06:01.807Z,4.77
2019-04-01T02:08:30.076Z,6.10
2019-04-01T02:10:58.381Z,7.67
2019-04-01T02:13:26.660Z,15.70
2019-04-01T02:15:54.966Z,6.00
2019-04-01T02:18:23.226Z,6.13
2019-04-01T02:20:51.525Z,7.23
2019-04-01T02:23:19.827Z,5.80
2019-04-01T02:25:48.115Z,6.87
2019-04-01T02:28:16.393Z,11.10
2019-04-01T02:30:44.689Z,5.13
2019-04-01T02:33:12.981Z,6.53
2019-04-01T02:35:41.284Z,7.67
2019-04-01T02:38:09.547Z,9.27
2019-04-01T02:40:37.868Z,4.93
2019-04-01T02:43:06.205Z,11.33
2019-04-01T02:45:34.510Z,10.83
2019-04-01T02:48:02.850Z,7.97
2019-04-01T02:50:31.192Z,13.43
2019-04-01T02:52:59.498Z,8.40
2019-04-01T02:55:27.759Z,8.57
2019-04-01T02:57:56.057Z,11.57
2019-04-01T03:00:24.341Z,9.30
2019-04-01T03:02:52.633Z,5.80
2019-04-01T03:05:20.896Z,7.27
2019-04-01T03:07:49.205Z,10.57
2019-04-01T03:10:17.538Z,19.77
2019-04-01T03:12:45.831Z,5.37
2019-04-01T03:15:14.100Z,4.47
2019-04-01T03:17:42.484Z,7.73
2019-04-01T03:20:10.880Z,4.53
2019-04-01T03:22:39.183Z,12.10
2019-04-01T03:25:07.542Z,6.80
2019-04-01T03:27:35.884Z,6.77
2019-04-01T03:30:04.407Z,10.30
2019-04-01T03:32:32.726Z,6.57
2019-04-01T03:35:01.952Z,3.43
2019-04-01T03:37:30.538Z,4.43
2019-04-01T03:39:58.831Z,7.10
2019-04-01T03:42:27.103Z,6.30
2019-04-01T03:44:55.686Z,4.43
2019-04-01T03:47:24.004Z,9.37
2019-04-01T03:49:52.298Z,2.27
2019-04-01T03:52:20.559Z,6.03
2019-04-01T03:54:48.914Z,4.27
2019-04-01T03:57:17.193Z,7.97
2019-04-01T03:59:45.483Z,5.13
2019-04-01T04:02:13.767Z,8.70
2019-04-01T04:04:42.161Z,7.57
2019-04-01T04:07:10.421Z,12.07
2019-04-01T04:09:38.726Z,9.87
2019-04-01T04:12:06.995Z,4.97
2019-04-01T04:14:35.287Z,13.40
2019-04-01T04:17:03.554Z,6.63
2019-04-01T04:19:31.871Z,6.13
2019-04-01T04:22:00.196Z,9.30
2019-04-01T04:24:28.495Z,7.63
2019-04-01T04:26:56.786Z,5.70
2019-04-01T04:29:25.147Z,6.67
2019-04-01T04:31:53.416Z,7.97
2019-04-01T04:34:21.738Z,10.60
2019-04-01T04:36:50.078Z,15.70
2019-04-01T04:39:18.345Z,9.13
2019-04-01T04:41:46.643Z,6.17
2019-04-01T04:44:14.995Z,9.03
2019-04-01T04:46:43.285Z,6.20
2019-04-01T04:49:11.624Z,6.60
2019-04-01T04:51:39.922Z,10.60
2019-04-01T04:54:08.207Z,15.20
2019-04-01T04:56:36.555Z,8.93
2019-04-01T04:59:04.830Z,10.77
2019-04-01T05:01:33.202Z,11.80
2019-04-01T05:04:01.550Z,12.77
2019-04-01T05:06:29.864Z,11.60
2019-04-01T05:08:58.196Z,7.27
2019-04-01T05:11:26.510Z,8.43
2019-04-01T05:13:55.499Z,9.13
2019-04-01T05:16:23.865Z,10.73
2019-04-01T05:18:52.209Z,8.83
2019-04-01T05:21:21.044Z,8.83
2019-04-01T05:23:50.184Z,8.43
2019-04-01T05:26:20.019Z,7.07
2019-04-01T05:28:48.851Z,8.70
2019-04-01T05:31:18.509Z,9.53
2019-04-01T05:33:55.377Z,7.10
2019-04-01T05:36:18.703Z,5.80
2019-04-01T05:38:47.045Z,4.87
2019-04-01T05:41:15.376Z,7.93
2019-04-01T05:43:43.769Z,8.77
2019-04-01T05:46:12.162Z,5.67
2019-04-01T05:48:40.487Z,9.37
2019-04-01T05:51:08.763Z,14.70
2019-04-01T05:53:37.139Z,8.50
2019-04-01T05:56:06.271Z,8.27
2019-04-01T05:58:34.833Z,7.70
2019-04-01T06:01:03.184Z,11.60
2019-04-01T06:03:31.544Z,12.07
2019-04-01T06:05:59.917Z,6.90
2019-04-01T06:08:28.213Z,11.67
2019-04-01T06:10:56.550Z,10.67
2019-04-01T06:13:24.854Z,7.27
2019-04-01T06:15:53.404Z,11.37
2019-04-01T06:18:21.899Z,14.63
2019-04-01T06:20:50.318Z,9.13
2019-04-01T06:23:18.606Z,6.03
2019-04-01T06:25:46.975Z,7.83
2019-04-01T06:28:15.331Z,7.93
2019-04-01T06:30:43.718Z,8.80
2019-04-01T06:33:12.058Z,3.93
2019-04-01T06:35:40.426Z,10.17
2019-04-01T06:38:08.798Z,10.60
2019-04-01T06:40:37.169Z,11.17
2019-04-01T06:43:05.579Z,13.57
2019-04-01T06:45:33.874Z,8.60
2019-04-01T06:48:02.142Z,5.50
2019-04-01T06:50:30.439Z,11.10
2019-04-01T06:52:58.724Z,9.23
2019-04-01T06:55:27.007Z,5.43
2019-04-01T06:57:55.343Z,9.13
2019-04-01T07:00:23.639Z,14.13
2019-04-01T07:02:51.919Z,10.57
2019-04-01T07:05:20.290Z,12.50
2019-04-01T07:07:48.568Z,12.93
2019-04-01T07:10:16.942Z,10.13
2019-04-01T07:12:45.288Z,11.10
2019-04-01T07:15:13.646Z,10.33
2019-04-01T07:17:41.995Z,6.87
2019-04-01T07:20:10.463Z,8.63
2019-04-01T07:22:38.723Z,7.20
2019-04-01T07:25:07.079Z,9.73
2019-04-01T07:27:35.447Z,11.40
2019-04-01T07:30:05.248Z,7.67
2019-04-01T07:32:33.543Z,9.13
2019-04-01T07:35:01.993Z,10.10
2019-04-01T07:37:30.381Z,11.43
2019-04-01T07:39:58.725Z,9.47
2019-04-01T07:42:27.092Z,11.97
2019-04-01T07:44:55.443Z,12.73
2019-04-01T07:47:23.807Z,9.77
2019-04-01T07:49:52.152Z,14.10
2019-04-01T07:52:20.543Z,10.00
2019-04-01T07:54:48.882Z,12.33
2019-04-01T07:57:17.339Z,10.23
2019-04-01T07:59:45.756Z,8.97
2019-04-01T08:02:14.206Z,9.23
2019-04-01T08:04:43.255Z,9.90
2019-04-01T08:07:13.392Z,7.67
2019-04-01T08:09:41.634Z,8.40
2019-04-01T08:12:10.010Z,12.63
2019-04-01T08:14:38.359Z,10.20
2019-04-01T08:17:06.723Z,11.13
2019-04-01T08:19:35.063Z,8.73
2019-04-01T08:22:03.548Z,13.73
2019-04-01T08:24:31.882Z,10.37
2019-04-01T08:27:00.247Z,11.53
2019-04-01T08:29:30.590Z,11.50
2019-04-01T08:31:58.669Z,8.67
2019-04-01T08:34:27.211Z,11.50
2019-04-01T08:36:55.559Z,14.73
2019-04-01T08:39:23.861Z,6.83
2019-04-01T08:41:52.126Z,11.07
2019-04-01T08:44:20.492Z,14.13
2019-04-01T08:46:48.770Z,11.33
2019-04-01T08:49:17.074Z,9.37
2019-04-01T08:51:45.337Z,7.27
2019-04-01T08:54:13.747Z,10.10
2019-04-01T08:56:42.131Z,7.67
2019-04-01T08:59:10.733Z,11.17
2019-04-01T09:01:39.420Z,12.47
2019-04-01T09:04:08.156Z,10.40
2019-04-01T09:06:36.856Z,10.33
2019-04-01T09:09:06.527Z,10.20
2019-04-01T09:11:38.458Z,9.47
2019-04-01T09:14:05.945Z,9.53
2019-04-01T09:16:34.783Z,15.50
2019-04-01T09:19:03.596Z,12.93
2019-04-01T09:21:32.304Z,10.97
2019-04-01T09:24:01.098Z,10.27
2019-04-01T09:26:29.800Z,12.20
2019-04-01T09:28:58.627Z,12.97
2019-04-01T09:31:27.506Z,9.57
2019-04-01T09:33:56.250Z,10.07
2019-04-01T09:36:25.081Z,13.10
2019-04-01T09:38:53.817Z,12.13
2019-04-01T09:41:22.610Z,10.43
2019-04-01T09:43:51.325Z,12.47
2019-04-01T09:46:20.053Z,9.73
2019-04-01T09:48:48.755Z,15.17
2019-04-01T09:51:17.490Z,14.37
2019-04-01T09:53:46.196Z,13.30
2019-04-01T09:56:14.948Z,14.33
2019-04-01T09:58:43.723Z,11.97
2019-04-01T10:01:12.596Z,12.73
2019-04-01T10:03:41.374Z,10.63
2019-04-01T10:06:10.490Z,10.17
2019-04-01T10:08:42.631Z,12.63
2019-04-01T10:11:12.660Z,14.00
2019-04-01T10:13:40.308Z,13.03
2019-04-01T10:16:09.137Z,15.27
2019-04-01T10:18:38.022Z,11.57
2019-04-01T10:21:06.766Z,12.77
2019-04-01T10:23:35.474Z,11.53
2019-04-01T10:26:04.306Z,17.33
2019-04-01T10:28:33.012Z,10.50
2019-04-01T10:31:01.821Z,11.43
2019-04-01T10:33:30.596Z,14.90
2019-04-01T10:35:59.454Z,11.70
2019-04-01T10:38:28.252Z,18.30
2019-04-01T10:40:57.090Z,17.27
2019-04-01T10:43:25.828Z,13.60
2019-04-01T10:45:54.629Z,15.17
2019-04-01T10:48:23.353Z,13.97
2019-04-01T10:50:52.138Z,14.67
2019-04-01T10:53:20.904Z,10.00
2019-04-01T10:55:49.748Z,10.87
2019-04-01T10:58:18.565Z,12.87
2019-04-01T11:00:47.407Z,13.40
2019-04-01T11:03:16.158Z,15.00
2019-04-01T11:05:45.837Z,15.10
2019-04-01T11:08:14.772Z,12.10
2019-04-01T11:10:43.481Z,14.17
2019-04-01T11:13:12.285Z,13.90
2019-04-01T11:15:41.129Z,18.07
2019-04-01T11:18:09.936Z,14.77
2019-04-01T11:20:38.716Z,16.37
2019-04-01T11:23:07.523Z,16.37
2019-04-01T11:25:36.223Z,15.50
2019-04-01T11:28:05.208Z,13.20
2019-04-01T11:30:36.912Z,12.87
2019-04-01T11:33:07.565Z,12.00
2019-04-01T11:35:34.996Z,15.93
2019-04-01T11:38:03.914Z,13.50
2019-04-01T11:40:32.713Z,15.97
2019-04-01T11:43:04.818Z,10.67
2019-04-01T11:45:31.982Z,14.33
2019-04-01T11:48:00.772Z,13.10
2019-04-01T11:50:29.540Z,15.00
2019-04-01T11:52:58.419Z,14.93
2019-04-01T11:55:27.297Z,13.60
2019-04-01T11:57:56.059Z,17.77
2019-04-01T12:00:26.351Z,14.37
2019-04-01T12:02:55.315Z,17.17
2019-04-01T12:05:24.071Z,16.00
2019-04-01T12:07:52.851Z,18.07
2019-04-01T12:10:21.722Z,12.77
2019-04-01T12:12:50.602Z,14.07
2019-04-01T12:15:19.903Z,16.13
2019-04-01T12:17:48.614Z,13.83
2019-04-01T12:20:17.419Z,15.33
2019-04-01T12:22:46.312Z,13.63
2019-04-01T12:25:15.140Z,17.27
2019-04-01T12:27:45.152Z,16.23
2019-04-01T12:30:14.165Z,14.00
2019-04-01T12:32:42.862Z,17.77
2019-04-01T12:35:11.929Z,15.90
2019-04-01T12:37:40.711Z,18.67
2019-04-01T12:40:09.648Z,16.20
2019-04-01T12:42:38.522Z,16.27
2019-04-01T12:45:07.533Z,15.07
2019-04-01T12:47:36.375Z,21.40
2019-04-01T12:50:06.636Z,15.07
2019-04-01T12:52:35.366Z,17.30
2019-04-01T12:55:06.236Z,12.83
2019-04-01T12:57:35.043Z,18.63
2019-04-01T13:00:05.890Z,11.47
2019-04-01T13:02:34.648Z,15.63
2019-04-01T13:05:05.002Z,17.73
2019-04-01T13:07:33.818Z,14.20
2019-04-01T13:10:03.666Z,16.13
2019-04-01T13:12:32.395Z,18.53
2019-04-01T13:15:01.114Z,15.77
2019-04-01T13:17:29.853Z,18.30
2019-04-01T13:19:58.648Z,14.37
2019-04-01T13:22:27.442Z,14.00
2019-04-01T13:24:56.217Z,16.27
2019-04-01T13:27:24.961Z,14.47
2019-04-01T13:29:53.739Z,18.17
2019-04-01T13:32:22.476Z,14.30
2019-04-01T13:34:51.275Z,14.27
2019-04-01T13:37:20.014Z,16.30
2019-04-01T13:39:48.789Z,18.57
2019-04-01T13:42:17.665Z,17.00
2019-04-01T13:44:46.377Z,16.23
2019-04-01T13:47:15.099Z,16.43
2019-04-01T13:49:43.822Z,19.00
2019-04-01T13:52:12.569Z,18.10
2019-04-01T13:54:41.701Z,15.13
2019-04-01T13:57:10.235Z,21.03
2019-04-01T13:59:49.139Z,15.63
2019-04-01T14:02:08.798Z,13.50
2019-04-01T14:04:37.125Z,15.53
2019-04-01T14:07:05.473Z,17.20
2019-04-01T14:09:33.768Z,18.50
2019-04-01T14:12:02.112Z,17.60
2019-04-01T14:14:30.410Z,18.30
2019-04-01T14:16:58.684Z,19.37
2019-04-01T14:19:26.986Z,18.20
2019-04-01T14:21:55.335Z,15.37
2019-04-01T14:24:23.638Z,16.77
2019-04-01T14:26:51.915Z,15.07
2019-04-01T14:29:20.224Z,16.70
2019-04-01T14:31:48.503Z,17.50
2019-04-01T14:34:22.981Z,15.27
2019-04-01T14:36:46.812Z,18.30
2019-04-01T14:39:15.110Z,14.27
2019-04-01T14:41:43.397Z,21.60
2019-04-01T14:44:11.735Z,20.30
2019-04-01T14:46:40.044Z,15.90
2019-04-01T14:49:08.310Z,16.10
2019-04-01T14:51:36.609Z,15.07
2019-04-01T14:54:06.101Z,15.23
2019-04-01T14:56:34.658Z,18.33
2019-04-01T14:59:03.005Z,19.07
2019-04-01T15:01:31.310Z,16.13
2019-04-01T15:03:59.648Z,16.50
2019-04-01T15:06:27.986Z,14.57
2019-04-01T15:08:56.880Z,17.73
2019-04-01T15:11:25.319Z,15.27
2019-04-01T15:13:53.600Z,18.37
2019-04-01T15:16:21.910Z,17.67
2019-04-01T15:18:50.171Z,17.07
2019-04-01T15:21:19.307Z,15.73
2019-04-01T15:23:47.592Z,15.53
2019-04-01T15:26:15.944Z,16.40
2019-04-01T15:28:44.297Z,17.57
2019-04-01T15:31:12.587Z,20.70
2019-04-01T15:33:40.979Z,14.97
2019-04-01T15:36:09.291Z,14.23
2019-04-01T15:38:37.586Z,13.47
2019-04-01T15:41:05.861Z,15.17
2019-04-01T15:43:34.154Z,19.07
2019-04-01T15:46:04.171Z,15.90
2019-04-01T15:48:32.506Z,20.47
2019-04-01T15:51:00.826Z,12.70
2019-04-01T15:53:29.122Z,15.70
2019-04-01T15:55:57.403Z,12.30
2019-04-01T15:58:25.706Z,14.63
2019-04-01T16:00:54.103Z,15.70
2019-04-01T16:03:22.442Z,15.43
2019-04-01T16:05:50.779Z,14.80
2019-04-01T16:08:19.263Z,14.40
2019-04-01T16:10:47.595Z,13.30
2019-04-01T16:13:15.906Z,13.97
2019-04-01T16:15:44.176Z,17.90
2019-04-01T16:18:12.462Z,17.13
2019-04-01T16:20:40.739Z,14.30
2019-04-01T16:23:09.027Z,14.00
2019-04-01T16:25:37.807Z,16.10
2019-04-01T16:28:06.333Z,13.20
2019-04-01T16:30:34.698Z,11.37
2019-04-01T16:33:03.052Z,13.87
2019-04-01T16:35:31.421Z,18.73
2019-04-01T16:37:59.761Z,14.90
2019-04-01T16:40:28.071Z,14.57
2019-04-01T16:42:56.411Z,12.57
2019-04-01T16:45:24.823Z,16.57
2019-04-01T16:47:53.158Z,15.23
2019-04-01T16:50:21.562Z,16.67
2019-04-01T16:52:50.005Z,13.27
2019-04-01T16:55:18.784Z,17.33
2019-04-01T16:57:48.644Z,15.13
2019-04-01T17:00:17.324Z,13.67
2019-04-01T17:02:45.605Z,11.53
2019-04-01T17:05:14.470Z,14.97
2019-04-01T17:07:42.776Z,13.60
2019-04-01T17:10:12.611Z,14.43
2019-04-01T17:12:40.883Z,12.67
2019-04-01T17:15:09.253Z,15.63
2019-04-01T17:17:37.534Z,16.83
2019-04-01T17:20:06.303Z,15.33
2019-04-01T17:22:34.770Z,12.70
2019-04-01T17:25:04.387Z,12.60
2019-04-01T17:27:32.694Z,16.33
2019-04-01T17:30:01.048Z,12.63
2019-04-01T17:32:29.356Z,14.23
2019-04-01T17:34:57.636Z,17.37
2019-04-01T17:37:26.134Z,12.93
2019-04-01T17:39:54.469Z,17.13
2019-04-01T17:42:22.781Z,13.77
2019-04-01T17:44:52.728Z,11.90
2019-04-01T17:47:21.127Z,15.00
2019-04-01T17:49:49.550Z,12.20
2019-04-01T17:52:17.874Z,16.10
2019-04-01T17:54:46.145Z,13.23
2019-04-01T17:57:15.926Z,13.27
2019-04-01T17:59:44.560Z,12.40
2019-04-01T18:02:14.430Z,15.13
2019-04-01T18:04:42.720Z,15.03
2019-04-01T18:07:11.116Z,16.17
2019-04-01T18:09:39.528Z,12.07
2019-04-01T18:12:07.867Z,14.27
2019-04-01T18:14:36.226Z,15.00
2019-04-01T18:17:04.523Z,10.77
2019-04-01T18:19:32.801Z,12.77
2019-04-01T18:22:01.186Z,14.27
2019-04-01T18:24:29.603Z,13.53
2019-04-01T18:26:57.908Z,11.67
2019-04-01T18:29:26.211Z,11.70
2019-04-01T18:31:54.477Z,10.77
2019-04-01T18:34:22.791Z,12.40
2019-04-01T18:36:51.986Z,17.83
2019-04-01T18:39:20.631Z,11.57
2019-04-01T18:41:48.908Z,14.60
2019-04-01T18:44:18.737Z,14.27
2019-04-01T18:46:47.258Z,13.30
2019-04-01T18:49:17.137Z,14.27
2019-04-01T18:51:45.717Z,16.17
2019-04-01T18:54:14.292Z,13.50
2019-04-01T18:56:42.701Z,15.77
2019-04-01T18:59:11.141Z,12.03
2019-04-01T19:01:39.426Z,13.40
2019-04-01T19:04:07.853Z,15.37
2019-04-01T19:06:36.386Z,15.83
2019-04-01T19:09:09.365Z,12.57
2019-04-01T19:11:38.000Z,17.70
2019-04-01T19:14:06.767Z,13.43
2019-04-01T19:16:35.067Z,12.30
2019-04-01T19:19:03.459Z,15.10
2019-04-01T19:21:31.823Z,18.73
2019-04-01T19:24:00.405Z,14.73
2019-04-01T19:26:28.784Z,13.10
2019-04-01T19:28:58.349Z,13.97
2019-04-01T19:31:26.828Z,17.33
2019-04-01T19:33:55.109Z,19.00
2019-04-01T19:36:23.549Z,21.33
2019-04-01T19:38:51.818Z,16.00
2019-04-01T19:41:20.622Z,15.40
2019-04-01T19:43:51.171Z,20.67
2019-04-01T19:46:19.254Z,17.80
2019-04-01T19:48:47.533Z,13.87
2019-04-01T19:51:15.833Z,10.80
2019-04-01T19:53:44.182Z,13.87
2019-04-01T19:56:12.571Z,14.13
2019-04-01T19:58:40.837Z,12.63
2019-04-01T20:01:09.267Z,15.70
2019-04-01T20:03:37.694Z,14.53
2019-04-01T20:06:07.586Z,14.70
2019-04-01T20:08:36.088Z,16.10
2019-04-01T20:11:04.411Z,12.57
2019-04-01T20:13:32.757Z,13.40
2019-04-01T20:16:01.076Z,14.97
2019-04-01T20:18:29.465Z,14.93
2019-04-01T20:20:57.804Z,15.63
2019-04-01T20:23:26.084Z,15.30
2019-04-01T20:25:54.409Z,18.03
2019-04-01T20:28:22.676Z,16.67
2019-04-01T20:30:50.952Z,14.33
2019-04-01T20:33:20.696Z,15.63
2019-04-01T20:35:49.490Z,15.17
2019-04-01T20:38:17.806Z,14.03
2019-04-01T20:40:46.158Z,11.87
2019-04-01T20:43:15.365Z,15.00
2019-04-01T20:45:44.436Z,12.80
2019-04-01T20:48:13.179Z,12.57
2019-04-01T20:50:42.027Z,16.40
2019-04-01T20:53:10.784Z,14.90
2019-04-01T20:55:48.217Z,15.10
2019-04-01T20:58:10.060Z,15.00
2019-04-01T21:00:38.880Z,12.47
2019-04-01T21:03:07.684Z,12.13
2019-04-01T21:05:36.387Z,18.07
2019-04-01T21:08:05.129Z,15.23
2019-04-01T21:10:33.904Z,13.80
2019-04-01T21:13:02.801Z,15.23
2019-04-01T21:15:31.529Z,14.27
2019-04-01T21:18:00.336Z,17.20
2019-04-01T21:20:29.040Z,13.40
2019-04-01T21:22:57.770Z,16.03
2019-04-01T21:25:26.539Z,14.83
2019-04-01T21:27:55.300Z,14.17
2019-04-01T21:30:24.197Z,13.70
2019-04-01T21:32:52.899Z,15.63
2019-04-01T21:35:23.638Z,15.43
2019-04-01T21:37:52.415Z,15.37
2019-04-01T21:40:21.161Z,15.37
2019-04-01T21:42:50.470Z,17.60
2019-04-01T21:45:20.428Z,17.30
2019-04-01T21:47:49.192Z,15.33
2019-04-01T21:50:18.072Z,16.40
2019-04-01T21:52:46.850Z,13.53
2019-04-01T21:55:15.702Z,18.47
2019-04-01T21:57:44.419Z,16.03
2019-04-01T22:00:14.246Z,20.07
2019-04-01T22:02:44.069Z,14.77
2019-04-01T22:05:13.517Z,24.30
2019-04-01T22:07:42.217Z,14.70
2019-04-01T22:10:11.181Z,16.40
2019-04-01T22:12:39.891Z,15.60
2019-04-01T22:15:08.761Z,15.50
2019-04-01T22:17:37.463Z,23.60
2019-04-01T22:20:06.543Z,16.17
2019-04-01T22:22:36.156Z,17.83
2019-04-01T22:25:05.937Z,19.70
2019-04-01T22:27:34.675Z,21.93
2019-04-01T22:30:06.656Z,17.20
2019-04-01T22:32:35.468Z,21.87
2019-04-01T22:35:05.447Z,20.77
2019-04-01T22:37:34.411Z,21.57
2019-04-01T22:40:05.576Z,17.73
2019-04-01T22:42:34.346Z,20.50
2019-04-01T22:45:04.908Z,16.47
2019-04-01T22:47:33.726Z,20.77
2019-04-01T22:50:03.567Z,20.20
2019-04-01T22:52:32.294Z,23.83
2019-04-01T22:55:01.067Z,17.83
2019-04-01T22:57:29.803Z,17.27
2019-04-01T22:59:58.507Z,20.73
2019-04-01T23:02:27.322Z,20.10
2019-04-01T23:04:56.024Z,20.37
2019-04-01T23:07:24.757Z,22.50
2019-04-01T23:09:53.470Z,20.67
2019-04-01T23:12:22.392Z,19.83
2019-04-01T23:14:51.544Z,23.67
2019-04-01T23:17:20.281Z,21.27
2019-04-01T23:19:49.058Z,21.43
2019-04-01T23:22:17.787Z,18.23
2019-04-01T23:24:46.527Z,19.50
2019-04-01T23:27:15.372Z,22.53
2019-04-01T23:29:44.088Z,20.33
2019-04-01T23:32:12.906Z,19.07
2019-04-01T23:34:42.361Z,21.17
2019-04-01T23:37:11.976Z,21.17
2019-04-01T23:39:40.725Z,19.87
2019-04-01T23:42:09.458Z,20.43
2019-04-01T23:44:38.206Z,23.97
2019-04-01T23:47:06.902Z,23.43
2019-04-01T23:49:35.632Z,16.63
2019-04-01T23:52:05.205Z,22.13
2019-04-01T23:54:34.196Z,16.87
2019-04-01T23:57:02.911Z,17.87
2019-04-01T23:59:31.705Z,22.07
